createdAt,value
2023-02-03T00:01:24.770Z,9.27
2023-02-03T00:03:51.232Z,9.08
2023-02-03T00:06:17.642Z,9.33
2023-02-03T00:08:44.297Z,9.29
2023-02-03T00:11:10.840Z,9.23
2023-02-03T00:13:37.264Z,9.20
2023-02-03T00:16:06.462Z,9.14
2023-02-03T00:18:33.522Z,9.23
2023-02-03T00:20:59.903Z,9.10
2023-02-03T00:23:30.068Z,9.06
2023-02-03T00:25:56.525Z,9.21
2023-02-03T00:28:22.984Z,9.16
2023-02-03T00:30:49.626Z,9.30
2023-02-03T00:33:16.016Z,9.40
2023-02-03T00:35:42.457Z,9.32
2023-02-03T00:38:08.855Z,9.17
2023-02-03T00:40:35.227Z,9.20
2023-02-03T00:43:01.605Z,9.28
2023-02-03T00:45:27.968Z,9.16
2023-02-03T00:47:54.328Z,9.16
2023-02-03T00:50:20.705Z,9.20
2023-02-03T00:52:47.073Z,9.17
2023-02-03T00:55:13.547Z,9.28
2023-02-03T00:57:39.949Z,9.49
2023-02-03T01:00:06.995Z,9.44
2023-02-03T01:02:33.467Z,9.12
2023-02-03T01:04:59.890Z,9.31
2023-02-03T01:07:26.394Z,9.51
2023-02-03T01:09:52.771Z,9.22
2023-02-03T01:12:19.185Z,9.38
2023-02-03T01:14:45.573Z,9.27
2023-02-03T01:17:11.958Z,9.18
2023-02-03T01:19:38.419Z,9.43
2023-02-03T01:22:04.802Z,9.18
2023-02-03T01:24:31.665Z,9.12
2023-02-03T01:26:58.025Z,9.39
2023-02-03T01:29:24.499Z,9.32
2023-02-03T01:31:51.000Z,9.12
2023-02-03T01:34:18.428Z,9.29
2023-02-03T01:36:46.622Z,9.09
2023-02-03T01:39:13.135Z,9.17
2023-02-03T01:41:40.055Z,9.34
2023-02-03T01:44:42.015Z,9.30
2023-02-03T01:47:35.958Z,9.35
2023-02-03T01:50:13.648Z,9.21
2023-02-03T01:52:42.405Z,9.29
2023-02-03T01:55:11.728Z,9.22
2023-02-03T01:57:42.843Z,9.17
2023-02-03T02:00:10.157Z,9.26
2023-02-03T02:02:36.920Z,9.12
2023-02-03T02:05:07.050Z,9.33
2023-02-03T02:07:34.367Z,9.31
2023-02-03T02:10:01.815Z,9.11
2023-02-03T02:12:28.549Z,9.31
2023-02-03T02:14:55.222Z,9.39
2023-02-03T02:17:37.099Z,9.39
2023-02-03T02:20:41.725Z,9.43
2023-02-03T02:23:42.032Z,9.42
2023-02-03T02:26:29.659Z,9.40
2023-02-03T02:29:11.146Z,9.53
2023-02-03T02:31:59.710Z,9.52
2023-02-03T02:34:38.469Z,9.49
2023-02-03T02:37:27.084Z,9.33
2023-02-03T02:39:56.584Z,9.38
2023-02-03T02:42:35.926Z,9.56
2023-02-03T02:45:13.697Z,9.63
2023-02-03T02:47:40.335Z,9.57
2023-02-03T02:50:28.650Z,9.58
2023-02-03T02:52:56.391Z,9.58
2023-02-03T02:55:26.874Z,9.70
2023-02-03T02:57:58.533Z,9.66
2023-02-03T03:00:25.288Z,9.36
2023-02-03T03:02:51.971Z,9.59
2023-02-03T03:05:18.823Z,9.54
2023-02-03T03:07:49.722Z,9.48
2023-02-03T03:10:19.394Z,9.52
2023-02-03T03:12:50.251Z,9.57
2023-02-03T03:15:28.659Z,9.36
2023-02-03T03:18:01.845Z,9.45
2023-02-03T03:20:28.994Z,9.45
2023-02-03T03:23:06.964Z,9.58
2023-02-03T03:25:43.892Z,9.64
2023-02-03T03:28:16.232Z,9.60
2023-02-03T03:30:43.048Z,9.34
2023-02-03T03:33:09.850Z,9.46
2023-02-03T03:35:46.741Z,9.36
2023-02-03T03:38:19.539Z,9.61
2023-02-03T03:40:52.549Z,9.31
2023-02-03T03:43:25.314Z,9.62
2023-02-03T03:45:59.128Z,9.54
2023-02-03T03:48:34.425Z,9.65
2023-02-03T03:51:15.292Z,9.38
2023-02-03T03:53:42.911Z,9.54
2023-02-03T03:56:14.042Z,9.71
2023-02-03T03:58:45.001Z,9.54
2023-02-03T04:01:12.445Z,9.46
2023-02-03T04:03:43.254Z,9.65
2023-02-03T04:06:09.641Z,9.30
2023-02-03T04:08:36.028Z,9.40
2023-02-03T04:11:02.400Z,9.55
2023-02-03T04:13:28.781Z,9.69
2023-02-03T04:15:55.157Z,9.62
2023-02-03T04:18:21.573Z,9.33
2023-02-03T04:20:48.187Z,9.34
2023-02-03T04:23:14.625Z,9.27
2023-02-03T04:25:40.997Z,9.69
2023-02-03T04:28:07.506Z,9.53
2023-02-03T04:30:34.047Z,9.78
2023-02-03T04:33:00.487Z,9.50
2023-02-03T04:35:27.017Z,9.60
2023-02-03T04:37:53.412Z,9.55
2023-02-03T04:40:19.781Z,9.78
2023-02-03T04:42:46.164Z,9.55
2023-02-03T04:45:12.855Z,9.66
2023-02-03T04:47:39.679Z,9.70
2023-02-03T04:50:06.456Z,9.59
2023-02-03T04:52:32.904Z,9.75
2023-02-03T04:54:59.371Z,9.55
2023-02-03T04:57:25.744Z,9.58
2023-02-03T04:59:52.112Z,9.51
2023-02-03T05:02:18.501Z,9.73
2023-02-03T05:04:44.872Z,9.42
2023-02-03T05:07:11.422Z,9.45
2023-02-03T05:09:37.803Z,9.45
2023-02-03T05:12:04.301Z,9.42
2023-02-03T05:14:30.670Z,9.51
2023-02-03T05:16:57.101Z,9.64
2023-02-03T05:19:23.593Z,9.58
2023-02-03T05:21:50.656Z,9.56
2023-02-03T05:24:17.068Z,9.57
2023-02-03T05:26:43.440Z,9.57
2023-02-03T05:29:11.686Z,9.72
2023-02-03T05:31:38.122Z,9.57
2023-02-03T05:34:04.551Z,9.57
2023-02-03T05:36:30.947Z,9.59
2023-02-03T05:38:57.304Z,9.58
2023-02-03T05:41:42.475Z,9.63
2023-02-03T05:44:08.939Z,9.44
2023-02-03T05:46:35.328Z,9.63
2023-02-03T05:49:01.697Z,9.28
2023-02-03T05:51:28.381Z,9.51
2023-02-03T05:53:54.750Z,9.68
2023-02-03T05:56:21.112Z,9.64
2023-02-03T05:58:47.499Z,9.37
2023-02-03T06:01:13.857Z,9.54
2023-02-03T06:03:40.331Z,9.54
2023-02-03T06:06:06.830Z,9.40
2023-02-03T06:08:33.264Z,9.49
2023-02-03T06:11:00.619Z,9.48
2023-02-03T06:13:27.562Z,9.55
2023-02-03T06:15:53.969Z,9.36
2023-02-03T06:18:20.663Z,9.41
2023-02-03T06:20:47.052Z,9.39
2023-02-03T06:23:13.664Z,9.41
2023-02-03T06:25:40.043Z,9.53
2023-02-03T06:28:06.462Z,9.26
2023-02-03T06:30:32.910Z,9.37
2023-02-03T06:32:59.313Z,9.49
2023-02-03T06:35:25.755Z,9.46
2023-02-03T06:37:52.134Z,9.50
2023-02-03T06:40:18.621Z,9.22
2023-02-03T06:42:48.593Z,9.40
2023-02-03T06:45:15.245Z,9.14
2023-02-03T06:47:42.560Z,9.38
2023-02-03T06:50:10.454Z,9.40
2023-02-03T06:52:36.860Z,9.32
2023-02-03T06:55:04.275Z,9.32
2023-02-03T06:57:30.994Z,9.29
2023-02-03T06:59:57.462Z,9.15
2023-02-03T07:02:23.880Z,9.34
2023-02-03T07:04:50.357Z,9.33
2023-02-03T07:07:17.042Z,9.30
2023-02-03T07:09:43.485Z,9.29
2023-02-03T07:12:09.920Z,9.17
2023-02-03T07:14:36.330Z,8.99
2023-02-03T07:17:03.165Z,9.09
2023-02-03T07:19:29.747Z,9.46
2023-02-03T07:21:56.239Z,9.11
2023-02-03T07:24:22.665Z,9.29
2023-02-03T07:26:49.097Z,9.25
2023-02-03T07:29:15.512Z,9.37
2023-02-03T07:31:41.979Z,9.25
2023-02-03T07:34:08.423Z,8.96
2023-02-03T07:36:34.803Z,9.01
2023-02-03T07:39:01.203Z,9.20
2023-02-03T07:41:27.748Z,9.22
2023-02-03T07:43:54.120Z,9.32
2023-02-03T07:46:20.526Z,9.04
2023-02-03T07:48:46.907Z,9.22
2023-02-03T07:51:13.282Z,9.20
2023-02-03T07:53:39.692Z,9.25
2023-02-03T07:56:06.290Z,9.31
2023-02-03T07:58:32.763Z,9.34
2023-02-03T08:00:59.932Z,9.29
2023-02-03T08:03:26.379Z,9.33
2023-02-03T08:05:53.409Z,9.34
2023-02-03T08:08:19.796Z,9.42
2023-02-03T08:10:46.187Z,9.46
2023-02-03T08:13:12.650Z,9.34
2023-02-03T08:15:39.022Z,9.49
2023-02-03T08:18:05.554Z,9.49
2023-02-03T08:20:31.943Z,9.49
2023-02-03T08:22:58.312Z,9.54
2023-02-03T08:25:24.686Z,9.57
2023-02-03T08:27:51.325Z,9.70
2023-02-03T08:30:17.747Z,9.47
2023-02-03T08:32:44.137Z,9.56
2023-02-03T08:35:10.623Z,9.74
2023-02-03T08:37:37.242Z,9.61
2023-02-03T08:40:04.734Z,9.74
2023-02-03T08:42:31.187Z,9.44
2023-02-03T08:44:57.832Z,9.52
2023-02-03T08:47:24.580Z,9.76
2023-02-03T08:49:51.086Z,9.40
2023-02-03T08:52:19.111Z,9.79
2023-02-03T08:54:46.088Z,9.32
2023-02-03T08:57:12.771Z,9.81
2023-02-03T08:59:40.606Z,9.86
2023-02-03T09:02:09.736Z,9.87
2023-02-03T09:04:36.241Z,9.80
2023-02-03T09:07:04.311Z,9.76
2023-02-03T09:09:34.545Z,9.79
2023-02-03T09:12:02.365Z,9.81
2023-02-03T09:14:33.480Z,9.89
2023-02-03T09:17:01.597Z,10.00
2023-02-03T09:19:28.009Z,10.03
2023-02-03T09:21:54.471Z,9.82
2023-02-03T09:24:22.185Z,10.11
2023-02-03T09:26:48.716Z,9.93
2023-02-03T09:29:15.304Z,9.48
2023-02-03T09:31:44.159Z,9.92
2023-02-03T09:34:10.689Z,9.85
2023-02-03T09:36:37.617Z,10.09
2023-02-03T09:39:04.609Z,10.09
2023-02-03T09:41:44.515Z,10.24
2023-02-03T09:44:36.712Z,10.01
2023-02-03T09:47:10.427Z,10.04
2023-02-03T09:49:41.315Z,10.02
2023-02-03T09:52:25.261Z,10.18
2023-02-03T09:55:29.605Z,10.20
2023-02-03T09:58:04.139Z,10.29
2023-02-03T10:00:34.374Z,10.24
2023-02-03T10:03:10.651Z,10.15
2023-02-03T10:05:48.974Z,10.28
2023-02-03T10:08:18.325Z,10.28
2023-02-03T10:11:14.046Z,10.09
2023-02-03T10:13:44.848Z,10.31
2023-02-03T10:16:35.084Z,9.91
2023-02-03T10:19:04.309Z,10.48
2023-02-03T10:21:41.529Z,9.75
2023-02-03T10:24:15.648Z,10.45
2023-02-03T10:26:42.606Z,10.46
2023-02-03T10:29:21.255Z,10.42
2023-02-03T10:31:48.037Z,10.28
2023-02-03T10:34:16.479Z,10.50
2023-02-03T10:36:56.552Z,10.49
2023-02-03T10:39:31.730Z,10.57
2023-02-03T10:41:58.455Z,10.38
2023-02-03T10:44:33.744Z,10.52
2023-02-03T10:47:00.360Z,10.23
2023-02-03T10:49:28.603Z,10.44
2023-02-03T10:51:58.131Z,10.43
2023-02-03T10:54:32.130Z,10.68
2023-02-03T10:57:04.351Z,10.67
2023-02-03T10:59:34.922Z,10.66
2023-02-03T11:02:07.952Z,10.62
2023-02-03T11:04:34.515Z,10.48
2023-02-03T11:07:03.693Z,10.69
2023-02-03T11:09:39.548Z,10.65
2023-02-03T11:12:13.388Z,10.77
2023-02-03T11:14:47.915Z,10.30
2023-02-03T11:17:27.058Z,10.48
2023-02-03T11:19:55.111Z,10.83
2023-02-03T11:22:34.210Z,10.26
2023-02-03T11:25:02.782Z,10.51
2023-02-03T11:27:33.284Z,10.52
2023-02-03T11:30:20.906Z,10.55
2023-02-03T11:32:48.046Z,10.41
2023-02-03T11:35:29.441Z,10.67
2023-02-03T11:37:58.059Z,10.77
2023-02-03T11:40:28.067Z,10.70
2023-02-03T11:42:57.709Z,10.70
2023-02-03T11:45:48.574Z,10.64
2023-02-03T11:48:25.095Z,10.28
2023-02-03T11:51:00.686Z,10.13
2023-02-03T11:54:01.495Z,10.67
2023-02-03T11:56:47.280Z,10.56
2023-02-03T11:59:26.608Z,10.58
2023-02-03T12:02:27.579Z,10.68
2023-02-03T12:05:31.160Z,10.27
2023-02-03T12:08:21.441Z,10.37
2023-02-03T12:11:05.905Z,10.29
2023-02-03T12:13:44.901Z,10.24
2023-02-03T12:16:14.510Z,10.42
2023-02-03T12:19:06.155Z,10.34
2023-02-03T12:21:45.337Z,10.32
2023-02-03T12:24:39.373Z,10.36
2023-02-03T12:27:10.910Z,10.42
2023-02-03T12:29:44.612Z,10.40
2023-02-03T12:32:22.640Z,10.36
2023-02-03T12:34:57.218Z,9.96
2023-02-03T12:37:42.677Z,9.87
2023-02-03T12:40:18.328Z,10.21
2023-02-03T12:42:52.265Z,10.11
2023-02-03T12:45:29.793Z,10.12
2023-02-03T12:48:29.369Z,9.79
2023-02-03T12:51:01.441Z,10.10
2023-02-03T12:53:31.687Z,9.74
2023-02-03T12:56:12.001Z,10.38
2023-02-03T12:58:42.103Z,9.78
2023-02-03T13:01:23.504Z,10.45
2023-02-03T13:04:11.034Z,10.52
2023-02-03T13:06:52.497Z,10.30
2023-02-03T13:10:10.159Z,10.50
2023-02-03T13:12:45.133Z,10.56
2023-02-03T13:15:30.842Z,10.55
2023-02-03T13:18:06.227Z,10.53
2023-02-03T13:20:35.905Z,10.39
2023-02-03T13:23:10.486Z,9.96
2023-02-03T13:25:42.781Z,10.54
2023-02-03T13:28:23.568Z,10.26
2023-02-03T13:31:07.943Z,10.27
2023-02-03T13:33:55.891Z,10.57
2023-02-03T13:36:44.109Z,10.46
2023-02-03T13:39:19.593Z,10.55
2023-02-03T13:41:55.509Z,10.21
2023-02-03T13:44:28.041Z,10.45
2023-02-03T13:46:57.146Z,10.28
2023-02-03T13:49:27.120Z,10.44
2023-02-03T13:51:53.410Z,10.18
2023-02-03T13:54:35.323Z,10.30
2023-02-03T13:57:15.929Z,9.96
2023-02-03T13:59:44.897Z,9.92
2023-02-03T14:02:23.593Z,10.41
2023-02-03T14:04:58.184Z,10.08
2023-02-03T14:07:38.692Z,10.08
2023-02-03T14:10:06.549Z,10.40
2023-02-03T14:12:35.651Z,10.14
2023-02-03T14:15:17.332Z,9.96
2023-02-03T14:17:43.606Z,10.44
2023-02-03T14:20:31.510Z,10.42
2023-02-03T14:23:07.038Z,10.40
2023-02-03T14:25:43.191Z,10.44
2023-02-03T14:28:20.046Z,10.24
2023-02-03T14:31:16.464Z,10.38
2023-02-03T14:33:49.187Z,10.44
2023-02-03T14:36:29.311Z,10.41
2023-02-03T14:38:56.828Z,10.37
2023-02-03T14:41:33.004Z,10.21
2023-02-03T14:44:02.253Z,10.17
2023-02-03T14:46:43.785Z,10.27
2023-02-03T14:49:16.385Z,9.79
2023-02-03T14:51:47.695Z,10.39
2023-02-03T14:54:28.064Z,10.07
2023-02-03T14:57:16.312Z,10.34
2023-02-03T14:59:44.940Z,10.34
2023-02-03T15:02:26.432Z,10.33
2023-02-03T15:05:11.788Z,10.13
2023-02-03T15:07:49.451Z,10.19
2023-02-03T15:10:21.467Z,10.23
2023-02-03T15:12:53.386Z,10.27
2023-02-03T15:15:28.799Z,9.91
2023-02-03T15:18:00.562Z,10.07
2023-02-03T15:20:32.912Z,10.19
2023-02-03T15:22:59.393Z,10.12
2023-02-03T15:25:26.464Z,10.11
2023-02-03T15:27:53.175Z,9.96
2023-02-03T15:30:27.931Z,10.18
2023-02-03T15:33:05.711Z,10.05
2023-02-03T15:35:35.222Z,9.77
2023-02-03T15:38:07.658Z,10.05
2023-02-03T15:40:45.142Z,10.01
2023-02-03T15:43:16.963Z,10.08
2023-02-03T15:46:07.357Z,9.96
2023-02-03T15:48:42.156Z,9.82
2023-02-03T15:51:19.459Z,9.61
2023-02-03T15:53:48.941Z,10.05
2023-02-03T15:56:26.373Z,9.96
2023-02-03T15:58:53.156Z,9.74
2023-02-03T16:01:21.420Z,9.98
2023-02-03T16:03:52.845Z,9.89
2023-02-03T16:06:24.589Z,10.04
2023-02-03T16:08:52.545Z,9.67
2023-02-03T16:11:26.085Z,9.95
2023-02-03T16:13:55.360Z,9.43
2023-02-03T16:16:38.765Z,9.59
2023-02-03T16:19:25.479Z,9.50
2023-02-03T16:21:56.946Z,9.71
2023-02-03T16:24:35.176Z,9.65
2023-02-03T16:27:28.049Z,9.50
2023-02-03T16:30:34.099Z,9.61
2023-02-03T16:33:27.973Z,9.37
2023-02-03T16:36:17.778Z,9.44
2023-02-03T16:39:06.844Z,9.13
2023-02-03T16:41:52.551Z,9.20
2023-02-03T16:44:37.470Z,8.94
2023-02-03T16:47:23.072Z,9.17
2023-02-03T16:50:07.962Z,9.30
2023-02-03T16:52:34.417Z,9.29
2023-02-03T16:55:00.847Z,9.37
2023-02-03T16:57:28.115Z,9.32
2023-02-03T16:59:55.012Z,9.25
2023-02-03T17:02:21.640Z,9.02
2023-02-03T17:04:48.158Z,9.14
2023-02-03T17:07:14.594Z,9.20
2023-02-03T17:09:41.028Z,9.29
2023-02-03T17:12:07.464Z,9.27
2023-02-03T17:14:33.847Z,9.44
2023-02-03T17:17:00.355Z,9.29
2023-02-03T17:19:26.827Z,8.92
2023-02-03T17:21:53.277Z,9.29
2023-02-03T17:24:19.938Z,8.78
2023-02-03T17:26:46.331Z,8.86
2023-02-03T17:29:12.803Z,8.85
2023-02-03T17:31:39.228Z,9.29
2023-02-03T17:34:05.662Z,8.82
2023-02-03T17:36:32.014Z,8.80
2023-02-03T17:55:23.649Z,9.06
2023-02-03T17:57:50.364Z,9.12
2023-02-03T18:00:17.168Z,9.05
2023-02-03T18:02:43.789Z,8.91
2023-02-03T18:05:10.657Z,9.01
2023-02-03T18:07:37.081Z,8.70
2023-02-03T18:10:04.447Z,8.91
2023-02-03T18:12:30.892Z,8.44
2023-02-03T18:14:57.892Z,8.46
2023-02-03T18:17:24.428Z,8.74
2023-02-03T18:19:55.692Z,8.78
2023-02-03T18:22:22.905Z,8.84
2023-02-03T18:24:52.546Z,8.79
2023-02-03T18:27:19.105Z,8.69
2023-02-03T18:29:46.334Z,8.85
2023-02-03T18:32:16.367Z,8.75
2023-02-03T18:34:42.703Z,8.88
2023-02-03T18:37:09.159Z,8.99
2023-02-03T18:39:35.877Z,9.15
2023-02-03T18:42:02.671Z,8.64
2023-02-03T18:44:29.149Z,9.09
2023-02-03T18:46:55.627Z,8.57
2023-02-03T18:49:22.608Z,9.02
2023-02-03T18:51:49.050Z,9.03
2023-02-03T18:54:15.435Z,9.12
2023-02-03T18:56:41.910Z,9.13
2023-02-03T18:59:10.338Z,9.05
2023-02-03T19:01:38.677Z,8.95
2023-02-03T19:04:05.579Z,9.10
2023-02-03T19:06:33.908Z,9.23
2023-02-03T19:09:00.918Z,9.20
2023-02-03T19:11:27.504Z,8.96
2023-02-03T19:13:54.034Z,8.96
2023-02-03T19:16:20.649Z,9.10
2023-02-03T19:18:47.357Z,8.64
2023-02-03T19:21:14.312Z,9.20
2023-02-03T19:23:41.707Z,9.16
2023-02-03T19:26:09.685Z,9.13
2023-02-03T19:28:36.135Z,8.62
2023-02-03T19:31:08.735Z,8.89
2023-02-03T19:33:36.737Z,9.12
2023-02-03T19:36:04.496Z,9.08
2023-02-03T19:38:30.938Z,8.60
2023-02-03T19:40:57.474Z,8.92
2023-02-03T19:43:24.652Z,9.02
2023-02-03T19:45:51.624Z,9.11
2023-02-03T19:48:18.194Z,8.82
2023-02-03T19:50:46.919Z,8.65
2023-02-03T19:53:14.222Z,9.07
2023-02-03T19:55:43.061Z,9.21
2023-02-03T19:58:09.849Z,8.79
2023-02-03T20:00:36.571Z,9.19
2023-02-03T20:03:03.642Z,8.63
2023-02-03T20:05:30.075Z,9.22
2023-02-03T20:07:56.616Z,9.09
2023-02-03T20:10:26.247Z,9.04
2023-02-03T20:12:54.064Z,8.78
2023-02-03T20:15:21.610Z,9.01
2023-02-03T20:17:48.069Z,8.96
2023-02-03T20:20:15.689Z,9.27
2023-02-03T20:22:42.070Z,8.94
2023-02-03T20:25:08.767Z,8.97
2023-02-03T20:27:35.216Z,9.06
2023-02-03T20:30:02.202Z,8.93
2023-02-03T20:32:28.635Z,9.24
2023-02-03T20:34:55.051Z,9.13
2023-02-03T20:37:21.470Z,8.74
2023-02-03T20:39:47.902Z,9.00
2023-02-03T20:42:16.613Z,9.18
2023-02-03T20:44:43.441Z,9.07
2023-02-03T20:47:18.667Z,9.15
2023-02-03T20:49:45.802Z,9.09
2023-02-03T20:52:20.467Z,9.10
2023-02-03T20:54:47.813Z,9.18
2023-02-03T20:57:18.800Z,9.07
2023-02-03T20:59:45.944Z,9.01
2023-02-03T21:02:53.472Z,9.03
2023-02-03T21:05:25.822Z,9.16
2023-02-03T21:07:52.240Z,8.67
2023-02-03T21:10:20.925Z,8.99
2023-02-03T21:12:48.095Z,9.07
2023-02-03T21:15:27.734Z,9.10
2023-02-03T21:17:54.227Z,9.01
2023-02-03T21:20:28.337Z,8.97
2023-02-03T21:22:55.820Z,9.09
2023-02-03T21:25:27.058Z,9.02
2023-02-03T21:27:54.428Z,9.06
2023-02-03T21:30:34.522Z,9.15
2023-02-03T21:33:06.578Z,9.16
2023-02-03T21:35:37.010Z,8.88
2023-02-03T21:38:25.614Z,9.04
2023-02-03T21:40:51.897Z,8.93
2023-02-03T21:43:18.611Z,8.87
2023-02-03T21:45:45.349Z,9.04
2023-02-03T21:48:32.007Z,9.03
2023-02-03T21:51:13.420Z,9.05
2023-02-03T21:53:39.957Z,8.84
2023-02-03T21:56:18.681Z,8.29
2023-02-03T21:58:47.307Z,8.50
2023-02-03T22:01:16.625Z,8.79
2023-02-03T22:03:47.426Z,8.87
2023-02-03T22:06:17.425Z,8.60
2023-02-03T22:08:50.908Z,8.84
2023-02-03T22:11:18.672Z,8.44
2023-02-03T22:13:45.237Z,8.62
2023-02-03T22:16:14.111Z,8.06
2023-02-03T22:18:41.375Z,8.79
2023-02-03T22:21:08.354Z,8.56
2023-02-03T22:23:35.128Z,8.55
2023-02-03T22:26:01.641Z,9.09
2023-02-03T22:28:28.096Z,8.77
2023-02-03T22:30:54.609Z,8.74
2023-02-03T22:33:21.097Z,8.88
2023-02-03T22:35:47.479Z,8.91
2023-02-03T22:38:13.868Z,8.77
2023-02-03T22:40:40.270Z,8.89
2023-02-03T22:43:06.786Z,8.39
2023-02-03T22:45:33.246Z,8.53
2023-02-03T22:48:00.611Z,8.70
2023-02-03T22:50:35.545Z,8.88
2023-02-03T22:53:06.981Z,8.88
2023-02-03T22:55:33.367Z,8.78
2023-02-03T22:57:59.832Z,8.80
2023-02-03T23:00:26.601Z,9.02
2023-02-03T23:02:53.276Z,8.74
2023-02-03T23:05:19.731Z,8.69
2023-02-03T23:07:46.636Z,8.90
2023-02-03T23:10:17.359Z,8.92
2023-02-03T23:12:44.169Z,8.94
2023-02-03T23:15:11.481Z,8.86
2023-02-03T23:17:38.298Z,8.94
2023-02-03T23:20:05.938Z,8.73
2023-02-03T23:22:32.324Z,8.67
2023-02-03T23:25:00.285Z,8.83
2023-02-03T23:27:27.205Z,8.78
2023-02-03T23:29:53.764Z,8.73
2023-02-03T23:32:20.189Z,8.65
2023-02-03T23:35:05.109Z,8.65
2023-02-03T23:37:31.671Z,8.74
2023-02-03T23:39:58.227Z,8.78
2023-02-03T23:42:24.605Z,8.69
2023-02-03T23:44:51.031Z,8.41
2023-02-03T23:47:17.429Z,8.80
2023-02-03T23:49:43.871Z,8.65
2023-02-03T23:52:10.348Z,8.69
2023-02-03T23:54:37.928Z,8.74
2023-02-03T23:57:06.976Z,8.90
2023-02-03T23:59:33.412Z,8.86
